Time;durP1;ratioP1;P1;durP2;ratioP2;P2;SDS_P1;SDS_P2;PMS_P1;PMS_P2;Temp;Humidity;BMP_temperature;BMP_pressure;BME280_temperature;BME280_humidity;BME280_pressure;Samples;Min_cycle;Max_cycle;Signal;HPM_P1;HPM_P2
2023/09/10 00:02:09;;;;;;;40.65;28.50;;;17.70;99.90;;;;;;5082374;28;20403;-82
2023/09/10 00:04:36;;;;;;;38.15;26.33;;;17.70;99.90;;;;;;5098893;28;20073;-82
2023/09/10 00:07:03;;;;;;;38.08;26.85;;;17.70;99.90;;;;;;5082453;28;20094;-82
2023/09/10 00:09:30;;;;;;;35.78;26.55;;;17.70;99.90;;;;;;5098884;28;20453;-82
2023/09/10 00:11:56;;;;;;;39.13;26.70;;;17.70;99.90;;;;;;5132619;28;20032;-82
2023/09/10 00:14:23;;;;;;;36.35;26.45;;;17.60;99.90;;;;;;5115163;28;20040;-82
2023/09/10 00:16:50;;;;;;;35.67;25.63;;;17.60;99.90;;;;;;5098936;28;20046;-82
2023/09/10 00:19:16;;;;;;;33.83;25.00;;;17.60;99.90;;;;;;5099218;28;20078;-82
2023/09/10 00:21:43;;;;;;;36.67;24.55;;;17.60;99.90;;;;;;5094450;28;20044;-82
2023/09/10 00:24:11;;;;;;;33.83;23.63;;;17.60;99.90;;;;;;5109388;28;20096;-82
2023/09/10 00:26:38;;;;;;;33.97;25.27;;;17.60;99.90;;;;;;5095342;28;20036;-82
2023/09/10 00:29:04;;;;;;;35.05;25.65;;;17.60;99.90;;;;;;5112071;28;20047;-82
2023/09/10 00:31:33;;;;;;;35.47;26.40;;;17.50;99.90;;;;;;5111976;28;20373;-82
2023/09/10 00:34:00;;;;;;;34.72;24.77;;;17.50;99.90;;;;;;5112224;28;20042;-82
2023/09/10 00:36:26;;;;;;;37.63;26.48;;;17.50;99.90;;;;;;5095147;28;20036;-82
2023/09/10 00:38:53;;;;;;;35.65;24.95;;;17.50;99.90;;;;;;5095594;28;20050;-81
2023/09/10 00:41:20;;;;;;;39.83;27.38;;;17.50;99.90;;;;;;5078613;28;20044;-82
2023/09/10 00:43:49;;;;;;;35.92;27.08;;;17.40;99.90;;;;;;5111595;28;20051;-82
2023/09/10 00:46:15;;;;;;;34.42;26.08;;;17.40;99.90;;;;;;5095410;28;20066;-82
2023/09/10 00:48:42;;;;;;;38.13;26.88;;;17.40;99.90;;;;;;5078273;28;20044;-82
2023/09/10 00:51:09;;;;;;;36.47;26.88;;;17.40;99.90;;;;;;5111591;28;20047;-82
2023/09/10 00:53:36;;;;;;;37.88;27.08;;;17.40;99.90;;;;;;5111595;28;20476;-82
2023/09/10 00:56:03;;;;;;;36.45;27.42;;;17.40;99.90;;;;;;5095171;28;20040;-82
2023/09/10 00:58:30;;;;;;;39.30;28.95;;;17.30;99.90;;;;;;5111608;28;20520;-82
2023/09/10 01:00:58;;;;;;;43.45;28.45;;;17.30;99.90;;;;;;5078519;28;20131;-82
2023/09/10 01:03:26;;;;;;;41.10;29.65;;;17.30;99.90;;;;;;5095197;28;20040;-82
2023/09/10 01:05:53;;;;;;;41.90;30.73;;;17.30;99.90;;;;;;5111222;28;20047;-81
2023/09/10 01:08:20;;;;;;;40.30;29.48;;;17.20;99.90;;;;;;5078572;28;20131;-82
2023/09/10 01:11:16;;;;;;;43.80;29.70;;;17.20;99.90;;;;;;5094554;28;20043;-82
2023/09/10 01:13:52;;;;;;;40.40;28.02;;;17.20;99.90;;;;;;5100495;28;20408;-82
2023/09/10 01:16:33;;;;;;;39.55;28.25;;;17.20;99.90;;;;;;5128204;28;20039;-82
2023/09/10 01:19:42;;;;;;;37.83;27.95;;;17.20;99.90;;;;;;5111339;28;20036;-82
2023/09/10 01:22:17;;;;;;;37.30;27.35;;;17.10;99.90;;;;;;5112943;28;20040;-82
2023/09/10 01:24:48;;;;;;;39.20;28.65;;;17.10;99.90;;;;;;5114283;28;20044;-82
2023/09/10 01:27:15;;;;;;;39.28;29.98;;;17.10;99.90;;;;;;5098237;28;20038;-82
2023/09/10 01:29:42;;;;;;;38.10;27.13;;;17.10;99.90;;;;;;5114301;28;20089;-82
2023/09/10 01:32:16;;;;;;;41.10;29.55;;;17.10;99.90;;;;;;5098048;28;20889;-82
2023/09/10 01:35:07;;;;;;;40.25;29.80;;;17.00;99.90;;;;;;5113639;28;20380;-82
2023/09/10 01:38:05;;;;;;;37.80;27.90;;;17.00;99.90;;;;;;5130618;28;20047;-82
2023/09/10 01:40:38;;;;;;;38.92;27.73;;;17.00;99.90;;;;;;5114248;28;20510;-82
2023/09/10 01:43:06;;;;;;;40.08;29.20;;;17.00;99.90;;;;;;5114424;28;20078;-82
2023/09/10 01:45:37;;;;;;;39.55;27.10;;;17.00;99.90;;;;;;5114477;28;20086;-82
2023/09/10 01:48:05;;;;;;;39.97;29.67;;;17.00;99.90;;;;;;5097707;28;20039;-82
2023/09/10 01:50:31;;;;;;;40.75;29.08;;;17.00;99.90;;;;;;5097520;28;20044;-82
2023/09/10 01:52:58;;;;;;;40.13;29.40;;;16.90;99.90;;;;;;5113930;28;20039;-82
2023/09/10 01:55:25;;;;;;;38.42;28.38;;;17.00;99.90;;;;;;5113925;28;20036;-81
2023/09/10 01:57:54;;;;;;;39.75;28.67;;;16.90;99.90;;;;;;5114051;28;20047;-82
2023/09/10 02:00:22;;;;;;;38.15;27.80;;;16.90;99.90;;;;;;5113941;28;20066;-81
2023/09/10 02:02:49;;;;;;;40.35;29.38;;;16.90;99.90;;;;;;5130406;28;20046;-82
2023/09/10 02:05:16;;;;;;;38.58;27.88;;;16.90;99.90;;;;;;5080518;28;20078;-81
2023/09/10 02:07:42;;;;;;;41.40;29.83;;;16.90;99.90;;;;;;5096944;28;20062;-81
2023/09/10 02:10:10;;;;;;;38.75;27.60;;;16.90;99.90;;;;;;5097104;28;20039;-81
2023/09/10 02:12:37;;;;;;;42.60;30.35;;;16.90;99.90;;;;;;5130484;28;20043;-82
2023/09/10 02:15:06;;;;;;;42.28;28.35;;;16.90;99.90;;;;;;5080094;28;20043;-82
2023/09/10 02:17:33;;;;;;;36.97;26.42;;;16.80;99.90;;;;;;5113789;28;20043;-82
2023/09/10 02:20:00;;;;;;;38.63;28.35;;;16.80;99.90;;;;;;5080093;28;20092;-82
2023/09/10 02:22:27;;;;;;;39.05;27.88;;;16.80;99.90;;;;;;5096671;28;20047;-82
2023/09/10 02:24:53;;;;;;;36.30;27.42;;;16.80;99.90;;;;;;5080234;28;20805;-82
2023/09/10 02:27:20;;;;;;;40.33;29.38;;;16.80;99.90;;;;;;5113760;28;20043;-82
2023/09/10 02:29:47;;;;;;;35.45;28.55;;;16.80;99.90;;;;;;5096393;28;20100;-82
2023/09/10 02:32:13;;;;;;;40.58;29.30;;;16.80;99.90;;;;;;5080045;28;20126;-81
2023/09/10 02:34:40;;;;;;;39.22;28.88;;;16.80;99.90;;;;;;5080082;28;20066;-81
2023/09/10 02:37:07;;;;;;;42.55;29.88;;;16.70;99.90;;;;;;5096416;28;20122;-82
2023/09/10 02:39:34;;;;;;;37.47;28.58;;;16.70;99.90;;;;;;5097029;28;20091;-82
2023/09/10 02:42:00;;;;;;;37.47;26.98;;;16.70;99.90;;;;;;5079996;28;20039;-82
2023/09/10 02:44:27;;;;;;;37.92;27.83;;;16.70;99.90;;;;;;5079984;28;20062;-82
2023/09/10 02:46:54;;;;;;;39.75;28.25;;;16.70;99.90;;;;;;5079688;28;20403;-81
2023/09/10 02:49:20;;;;;;;36.75;27.45;;;16.70;99.90;;;;;;5079906;28;20039;-82
2023/09/10 02:51:48;;;;;;;39.60;28.88;;;16.70;99.90;;;;;;5079873;28;20023;-82
2023/09/10 02:54:15;;;;;;;37.45;27.85;;;16.70;99.90;;;;;;5097270;28;20487;-82
2023/09/10 02:56:42;;;;;;;38.70;27.50;;;16.60;99.90;;;;;;5113082;28;20042;-82
2023/09/10 02:59:25;;;;;;;41.03;27.45;;;16.60;99.90;;;;;;5112703;28;20538;-81
2023/09/10 03:01:53;;;;;;;38.17;27.33;;;16.60;99.90;;;;;;5112946;28;20036;-82
2023/09/10 03:04:20;;;;;;;39.83;27.83;;;16.60;99.90;;;;;;5112935;28;20036;-82
2023/09/10 03:06:48;;;;;;;37.63;27.40;;;16.60;99.90;;;;;;5079677;28;20475;-82
2023/09/10 03:09:16;;;;;;;38.58;27.13;;;16.60;99.90;;;;;;5112902;28;20509;-82
2023/09/10 03:11:44;;;;;;;38.55;27.95;;;16.60;99.90;;;;;;5113129;28;20057;-82
2023/09/10 03:14:10;;;;;;;36.90;27.55;;;16.60;99.90;;;;;;5096052;28;20541;-82
2023/09/10 03:16:39;;;;;;;35.90;25.98;;;16.60;99.90;;;;;;5112970;28;20036;-81
2023/09/10 03:19:05;;;;;;;39.05;27.95;;;16.50;99.90;;;;;;5112699;28;20051;-81
2023/09/10 03:21:32;;;;;;;39.08;26.50;;;16.50;99.90;;;;;;5095881;28;20036;-82
2023/09/10 03:23:59;;;;;;;41.50;27.00;;;16.50;99.90;;;;;;5095421;28;20097;-82
2023/09/10 03:26:25;;;;;;;34.58;25.23;;;16.50;99.90;;;;;;5096132;28;20031;-81
2023/09/10 03:28:52;;;;;;;36.33;25.60;;;16.50;99.90;;;;;;5095769;28;20044;-82
2023/09/10 03:31:19;;;;;;;38.67;27.73;;;16.50;99.90;;;;;;5096014;28;20158;-82
2023/09/10 03:33:45;;;;;;;34.08;25.80;;;16.50;99.90;;;;;;5079380;28;20039;-82
2023/09/10 03:36:12;;;;;;;35.50;25.77;;;16.50;99.90;;;;;;5112331;28;20448;-82
2023/09/10 03:38:39;;;;;;;33.55;25.17;;;16.50;99.90;;;;;;5079494;28;20043;-82
2023/09/10 03:41:05;;;;;;;34.35;26.65;;;16.40;99.90;;;;;;5095632;28;20126;-82
2023/09/10 03:43:32;;;;;;;36.85;25.67;;;16.50;99.90;;;;;;5079368;28;20051;-82
2023/09/10 03:45:59;;;;;;;38.92;27.50;;;16.40;99.90;;;;;;5112235;28;20046;-82
2023/09/10 03:48:25;;;;;;;37.85;27.77;;;16.40;99.90;;;;;;5079650;28;20036;-82
2023/09/10 03:50:52;;;;;;;32.67;24.88;;;16.40;99.90;;;;;;5095637;28;20039;-82
2023/09/10 03:53:19;;;;;;;34.35;26.48;;;16.40;99.90;;;;;;5095879;28;20067;-81
2023/09/10 03:55:45;;;;;;;35.33;26.35;;;16.40;99.90;;;;;;5079593;28;20040;-82
2023/09/10 03:58:12;;;;;;;32.83;24.85;;;16.40;99.90;;;;;;5095936;28;20130;-82
2023/09/10 04:00:39;;;;;;;34.95;25.23;;;16.40;99.90;;;;;;5083368;28;20042;-82
2023/09/10 04:03:06;;;;;;;38.25;26.27;;;16.30;99.90;;;;;;5115962;28;20127;-82
2023/09/10 04:05:32;;;;;;;36.83;26.70;;;16.30;99.90;;;;;;5099927;28;20130;-81
2023/09/10 04:07:59;;;;;;;35.15;26.23;;;16.30;99.90;;;;;;5099575;28;20122;-82
2023/09/10 04:10:27;;;;;;;39.75;27.67;;;16.30;99.90;;;;;;5099477;28;20035;-81
2023/09/10 04:12:53;;;;;;;39.88;26.35;;;16.30;99.90;;;;;;5083199;28;20035;-82
2023/09/10 04:15:20;;;;;;;36.95;26.38;;;16.30;99.90;;;;;;5082443;28;20061;-82
2023/09/10 04:17:47;;;;;;;33.92;25.50;;;16.30;99.90;;;;;;5116050;28;20533;-82
2023/09/10 04:20:14;;;;;;;35.58;26.58;;;16.30;99.90;;;;;;5082394;28;20039;-82
2023/09/10 04:22:40;;;;;;;40.17;27.45;;;16.20;99.90;;;;;;5099383;28;20059;-82
2023/09/10 04:25:08;;;;;;;35.78;25.50;;;16.20;99.90;;;;;;5082356;28;20048;-82
2023/09/10 04:27:34;;;;;;;36.70;26.73;;;16.20;99.90;;;;;;5082591;28;20134;-82
2023/09/10 04:30:02;;;;;;;36.40;25.52;;;16.20;99.90;;;;;;5082084;28;20135;-82
2023/09/10 04:32:29;;;;;;;32.75;25.15;;;16.20;99.90;;;;;;5082752;28;20071;-82
2023/09/10 04:34:55;;;;;;;36.58;26.55;;;16.20;99.90;;;;;;5115798;28;20074;-82
2023/09/10 04:37:22;;;;;;;34.38;24.77;;;16.10;99.90;;;;;;5098836;28;20036;-82
2023/09/10 04:39:51;;;;;;;32.88;24.05;;;16.20;99.90;;;;;;5099296;28;20086;-81
2023/09/10 04:42:17;;;;;;;32.67;24.80;;;16.10;99.90;;;;;;5098727;28;20423;-82
2023/09/10 04:44:47;;;;;;;34.53;24.35;;;16.10;99.90;;;;;;5081901;28;20050;-81
2023/09/10 04:47:14;;;;;;;37.67;26.33;;;16.10;99.90;;;;;;5115723;28;20476;-81
2023/09/10 04:49:44;;;;;;;39.17;28.77;;;16.10;99.90;;;;;;5115696;28;20099;-81
2023/09/10 04:52:10;;;;;;;38.25;26.45;;;16.10;99.90;;;;;;5098010;28;20122;-81
2023/09/10 04:54:37;;;;;;;37.72;25.88;;;16.10;99.90;;;;;;5081757;28;20044;-82
2023/09/10 04:57:04;;;;;;;39.15;26.88;;;16.10;99.90;;;;;;5098764;28;20051;-82
2023/09/10 04:59:32;;;;;;;40.55;28.38;;;16.10;99.90;;;;;;5114906;28;20043;-81
2023/09/10 05:02:00;;;;;;;41.55;29.55;;;16.10;99.90;;;;;;5115301;28;20051;-82
2023/09/10 05:04:27;;;;;;;42.67;30.52;;;16.10;99.90;;;;;;5131584;28;20044;-81
2023/09/10 05:06:54;;;;;;;43.70;30.70;;;16.10;99.90;;;;;;5114707;28;20480;-82
2023/09/10 05:09:20;;;;;;;44.92;31.10;;;16.10;99.90;;;;;;5098073;28;20089;-81
2023/09/10 05:11:47;;;;;;;41.47;30.27;;;16.10;99.90;;;;;;5115191;28;20032;-81
2023/09/10 05:14:13;;;;;;;41.45;29.42;;;16.10;99.90;;;;;;5114734;28;20154;-81
2023/09/10 05:16:40;;;;;;;45.25;30.33;;;16.10;99.90;;;;;;5081795;28;20120;-82
2023/09/10 05:19:07;;;;;;;39.58;30.30;;;16.10;99.90;;;;;;5081770;28;20035;-82
2023/09/10 05:21:34;;;;;;;42.00;29.85;;;16.00;99.90;;;;;;5081569;28;20092;-82
2023/09/10 05:24:01;;;;;;;41.10;29.52;;;16.10;99.90;;;;;;5114425;28;20087;-81
2023/09/10 05:26:27;;;;;;;43.95;30.85;;;16.10;99.90;;;;;;5097503;28;20071;-81
2023/09/10 05:28:54;;;;;;;38.42;28.27;;;16.10;99.90;;;;;;5098149;28;20077;-82
2023/09/10 05:31:21;;;;;;;40.65;28.60;;;16.10;99.90;;;;;;5097377;28;20039;-82
2023/09/10 05:33:47;;;;;;;43.45;30.02;;;16.20;99.90;;;;;;5114901;28;20036;-82
2023/09/10 05:36:14;;;;;;;39.53;28.83;;;16.20;99.90;;;;;;5097395;28;20411;-81
2023/09/10 05:38:41;;;;;;;40.65;29.25;;;16.20;99.90;;;;;;5081182;28;20035;-82
2023/09/10 05:41:08;;;;;;;38.78;27.58;;;16.20;99.90;;;;;;5081149;28;20043;-82
2023/09/10 05:43:35;;;;;;;39.88;28.52;;;16.30;99.90;;;;;;5114240;28;20043;-82
2023/09/10 05:46:01;;;;;;;42.45;29.02;;;16.30;99.90;;;;;;5098013;28;20080;-82
2023/09/10 05:48:28;;;;;;;44.47;29.45;;;16.30;99.90;;;;;;5097196;28;20126;-82
2023/09/10 05:50:58;;;;;;;45.50;31.55;;;16.40;99.90;;;;;;5097736;28;20078;-82
2023/09/10 05:53:24;;;;;;;43.35;30.23;;;16.40;99.90;;;;;;5097236;28;20419;-82
2023/09/10 05:55:51;;;;;;;45.47;31.85;;;16.40;99.90;;;;;;5080751;28;20043;-82
2023/09/10 05:58:19;;;;;;;48.63;32.45;;;16.40;99.90;;;;;;5113733;28;20042;-82
2023/09/10 06:00:45;;;;;;;45.47;30.65;;;16.50;99.90;;;;;;5114297;28;20047;-82
2023/09/10 06:03:13;;;;;;;47.30;32.42;;;16.50;99.90;;;;;;5113855;28;20604;-81
2023/09/10 06:05:39;;;;;;;47.45;33.03;;;16.50;99.90;;;;;;5096877;28;20137;-82
2023/09/10 06:08:06;;;;;;;46.55;33.40;;;16.60;99.90;;;;;;5097011;28;20477;-82
2023/09/10 06:10:33;;;;;;;44.65;32.83;;;16.60;99.90;;;;;;5080339;28;20426;-82
2023/09/10 06:12:59;;;;;;;48.05;33.70;;;16.60;99.90;;;;;;5096857;28;20035;-82
2023/09/10 06:15:27;;;;;;;48.10;33.47;;;16.70;99.90;;;;;;5096860;28;20032;-82
2023/09/10 06:17:54;;;;;;;45.45;32.33;;;16.80;99.90;;;;;;5114138;28;20075;-82
2023/09/10 06:20:21;;;;;;;44.28;33.63;;;16.80;99.90;;;;;;5096703;28;20100;-82
2023/09/10 06:22:48;;;;;;;49.78;35.53;;;16.90;99.90;;;;;;5109100;28;20154;-82
2023/09/10 06:25:15;;;;;;;52.95;36.95;;;16.90;99.90;;;;;;5076925;28;20135;-82
2023/09/10 06:27:41;;;;;;;49.70;35.50;;;17.00;99.90;;;;;;5109930;28;20503;-82
2023/09/10 06:30:08;;;;;;;48.55;35.25;;;17.10;99.90;;;;;;5109949;28;20063;-82
2023/09/10 06:32:35;;;;;;;51.72;35.35;;;17.10;99.90;;;;;;5076625;28;20387;-82
2023/09/10 06:35:02;;;;;;;51.83;36.45;;;17.20;99.90;;;;;;5093478;28;20036;-82
2023/09/10 06:37:28;;;;;;;52.60;37.38;;;17.30;99.90;;;;;;5126343;28;20036;-82
2023/09/10 06:39:55;;;;;;;48.97;35.90;;;17.30;99.90;;;;;;5076678;28;20126;-82
2023/09/10 06:42:22;;;;;;;49.10;34.55;;;17.40;99.90;;;;;;5092967;28;20075;-82
2023/09/10 06:44:48;;;;;;;47.42;33.97;;;17.40;99.90;;;;;;5093003;28;20043;-82
2023/09/10 06:47:15;;;;;;;47.25;32.97;;;17.50;99.90;;;;;;5092959;28;20093;-82
2023/09/10 06:49:42;;;;;;;45.58;33.22;;;17.60;99.90;;;;;;5075833;28;20082;-82
2023/09/10 06:52:09;;;;;;;44.55;32.33;;;17.60;99.90;;;;;;5092905;28;20048;-82
2023/09/10 06:54:39;;;;;;;51.63;33.67;;;17.70;99.90;;;;;;5095510;28;20440;-82
2023/09/10 06:57:05;;;;;;;44.92;32.83;;;17.80;99.90;;;;;;5086357;28;20183;-82
2023/09/10 06:59:33;;;;;;;47.10;33.03;;;17.90;99.90;;;;;;5109184;28;20044;-82
2023/09/10 07:01:59;;;;;;;48.58;34.70;;;18.00;99.90;;;;;;5109811;28;20036;-82
2023/09/10 07:04:27;;;;;;;48.33;33.35;;;18.00;99.90;;;;;;5070425;28;20040;-82
2023/09/10 07:06:54;;;;;;;46.45;33.40;;;18.10;99.90;;;;;;5109354;28;20093;-82
2023/09/10 07:09:22;;;;;;;47.10;34.13;;;18.20;99.90;;;;;;5086438;28;20070;-82
2023/09/10 07:11:53;;;;;;;44.33;32.58;;;18.30;99.90;;;;;;5085884;28;20036;-82
2023/09/10 07:14:21;;;;;;;44.00;31.67;;;18.40;99.90;;;;;;5109372;28;20511;-82
2023/09/10 07:16:48;;;;;;;43.13;31.55;;;18.50;99.90;;;;;;5101314;28;20040;-83
2023/09/10 07:19:15;;;;;;;41.63;30.48;;;18.60;99.90;;;;;;5109158;28;20047;-82
2023/09/10 07:21:43;;;;;;;41.33;30.20;;;18.60;99.90;;;;;;5092776;28;20032;-82
2023/09/10 07:24:09;;;;;;;43.85;28.80;;;18.70;99.90;;;;;;5108998;28;20555;-82
2023/09/10 07:26:37;;;;;;;39.55;29.38;;;18.80;99.90;;;;;;5119968;28;20053;-82
2023/09/10 07:29:08;;;;;;;37.35;28.08;;;19.00;99.90;;;;;;5091227;28;20039;-82
2023/09/10 07:31:35;;;;;;;38.97;28.17;;;19.00;99.90;;;;;;5088893;28;20037;-82
2023/09/10 07:34:03;;;;;;;41.10;28.15;;;19.10;99.90;;;;;;5092332;28;20058;-82
2023/09/10 07:36:29;;;;;;;41.42;28.13;;;19.20;99.90;;;;;;5059748;28;20037;-82
2023/09/10 07:38:56;;;;;;;36.72;27.63;;;19.30;99.90;;;;;;5060260;28;20037;-82
2023/09/10 07:41:23;;;;;;;37.90;27.23;;;19.40;99.90;;;;;;5068103;28;20045;-81
2023/09/10 07:43:50;;;;;;;36.60;28.23;;;19.50;99.90;;;;;;5092012;28;20798;-81
2023/09/10 07:46:17;;;;;;;36.90;27.35;;;19.60;99.90;;;;;;5092797;28;20127;-81
2023/09/10 07:48:44;;;;;;;37.80;27.63;;;19.70;99.90;;;;;;5092272;28;20048;-81
2023/09/10 07:51:11;;;;;;;37.00;26.58;;;19.80;99.90;;;;;;5075704;28;20044;-81
2023/09/10 07:53:37;;;;;;;41.58;27.85;;;19.90;99.90;;;;;;5075464;28;20097;-82
2023/09/10 07:56:04;;;;;;;33.95;25.95;;;20.00;99.90;;;;;;5077684;28;20047;-81
2023/09/10 07:58:31;;;;;;;33.35;24.98;;;20.10;99.90;;;;;;5088389;28;20036;-82
2023/09/10 08:00:57;;;;;;;33.40;25.52;;;20.20;99.90;;;;;;5082982;28;20090;-82
2023/09/10 08:03:24;;;;;;;34.30;25.77;;;20.30;99.90;;;;;;5071563;28;20103;-81
2023/09/10 08:05:51;;;;;;;31.98;25.52;;;20.40;99.90;;;;;;5102104;28;20044;-81
2023/09/10 08:08:18;;;;;;;30.98;23.90;;;20.50;99.90;;;;;;5075872;28;20041;-81
2023/09/10 08:10:48;;;;;;;31.17;24.33;;;20.60;99.90;;;;;;5083280;28;20088;-82
2023/09/10 08:13:15;;;;;;;30.83;24.63;;;20.70;99.90;;;;;;5090847;28;20121;-82
2023/09/10 08:15:42;;;;;;;28.85;22.98;;;20.90;99.90;;;;;;5078807;28;20066;-82
2023/09/10 08:18:11;;;;;;;30.40;23.83;;;21.00;99.90;;;;;;5081173;28;20107;-82
2023/09/10 08:20:42;;;;;;;29.90;24.90;;;21.10;99.90;;;;;;5105894;28;20049;-81
2023/09/10 08:23:09;;;;;;;33.17;24.02;;;21.30;99.90;;;;;;5113530;28;20099;-82
2023/09/10 08:25:36;;;;;;;30.48;23.90;;;21.30;99.90;;;;;;5115326;28;20411;-82
2023/09/10 08:28:03;;;;;;;27.88;22.45;;;21.40;99.90;;;;;;5106521;28;20043;-81
2023/09/10 08:30:31;;;;;;;26.83;21.35;;;21.50;99.90;;;;;;5078515;28;20040;-82
2023/09/10 08:32:58;;;;;;;30.20;23.65;;;21.60;99.90;;;;;;5101052;28;20419;-82
2023/09/10 08:35:41;;;;;;;27.95;21.63;;;21.70;99.90;;;;;;5094698;28;20043;-82
2023/09/10 08:38:07;;;;;;;27.05;20.95;;;21.80;99.90;;;;;;5098054;28;20028;-82
2023/09/10 08:40:35;;;;;;;26.80;21.23;;;22.00;99.90;;;;;;5062494;28;20097;-82
2023/09/10 08:43:10;;;;;;;23.50;16.27;;;22.00;99.90;;;;;;5090587;28;20074;-82
2023/09/10 08:45:37;;;;;;;20.73;16.25;;;22.20;99.90;;;;;;5102567;28;20040;-82
2023/09/10 08:48:05;;;;;;;22.70;16.02;;;22.30;99.90;;;;;;5061590;28;20051;-83
2023/09/10 08:50:32;;;;;;;20.40;15.88;;;22.40;99.90;;;;;;5094426;28;20466;-82
2023/09/10 08:53:01;;;;;;;23.00;17.55;;;22.50;99.90;;;;;;5107561;28;20029;-81
2023/09/10 08:55:30;;;;;;;21.05;16.50;;;22.50;99.90;;;;;;5069827;28;20032;-82
2023/09/10 08:57:57;;;;;;;22.17;16.85;;;22.60;99.90;;;;;;5094379;28;20048;-82
2023/09/10 09:00:24;;;;;;;22.35;16.15;;;22.60;99.90;;;;;;5077939;28;20044;-82
2023/09/10 09:02:51;;;;;;;17.70;15.23;;;22.80;99.90;;;;;;5094422;28;20044;-82
2023/09/10 09:05:18;;;;;;;18.85;14.48;;;22.80;99.90;;;;;;5077488;28;20044;-83
2023/09/10 09:07:51;;;;;;;20.08;15.43;;;23.00;99.90;;;;;;5061257;28;20415;-83
2023/09/10 09:10:25;;;;;;;21.67;14.73;;;23.10;99.90;;;;;;5094490;28;20057;-83
2023/09/10 09:12:57;;;;;;;23.08;15.30;;;23.20;99.90;;;;;;5110990;28;20079;-82
2023/09/10 09:15:25;;;;;;;19.70;15.23;;;23.20;99.90;;;;;;5094441;28;20055;-81
2023/09/10 09:17:54;;;;;;;17.67;13.77;;;23.40;99.90;;;;;;5078136;28;20123;-82
2023/09/10 09:20:21;;;;;;;19.88;15.05;;;23.50;99.90;;;;;;5072086;28;20040;-83
2023/09/10 09:22:52;;;;;;;19.90;15.52;;;23.60;99.90;;;;;;5094979;28;20507;-82
2023/09/10 09:25:18;;;;;;;20.85;15.35;;;23.70;99.90;;;;;;5113993;28;20039;-82
2023/09/10 09:27:48;;;;;;;20.38;14.88;;;23.70;99.90;;;;;;5080423;28;20153;-82
2023/09/10 09:30:15;;;;;;;18.92;15.23;;;23.90;99.90;;;;;;5114733;28;20506;-83
2023/09/10 09:32:45;;;;;;;19.35;14.95;;;23.90;99.90;;;;;;5093532;28;20032;-82
2023/09/10 09:35:12;;;;;;;18.75;13.38;;;23.90;99.90;;;;;;5093847;28;20480;-82
2023/09/10 09:37:39;;;;;;;16.52;13.30;;;24.00;99.90;;;;;;5077334;28;20089;-83
2023/09/10 09:40:09;;;;;;;19.50;13.65;;;24.10;99.90;;;;;;5066902;28;20150;-83
2023/09/10 09:42:37;;;;;;;18.13;13.90;;;24.20;99.90;;;;;;5093656;28;20089;-82
2023/09/10 09:45:04;;;;;;;18.85;13.43;;;24.20;99.90;;;;;;5110248;28;20047;-83
2023/09/10 09:47:31;;;;;;;18.67;14.90;;;24.40;99.90;;;;;;5094005;28;20048;-82
2023/09/10 09:49:59;;;;;;;16.83;13.10;;;24.40;99.90;;;;;;5093299;28;20533;-83
2023/09/10 09:52:25;;;;;;;16.95;13.25;;;24.50;99.90;;;;;;5099748;28;20407;-83
2023/09/10 09:54:52;;;;;;;17.75;13.10;;;24.50;99.90;;;;;;5080646;28;20036;-83
2023/09/10 09:57:19;;;;;;;16.10;13.07;;;24.60;99.90;;;;;;5076049;28;20039;-83
2023/09/10 09:59:47;;;;;;;17.88;13.88;;;24.70;99.90;;;;;;5060287;28;20042;-83
2023/09/10 10:02:16;;;;;;;18.77;13.77;;;24.80;99.90;;;;;;5093291;28;20075;-83
2023/09/10 10:04:44;;;;;;;17.10;13.43;;;24.90;99.90;;;;;;5093580;28;20043;-83
2023/09/10 10:07:14;;;;;;;20.98;15.65;;;25.00;99.90;;;;;;5094060;28;20079;-83
2023/09/10 10:09:42;;;;;;;21.63;15.35;;;25.00;99.90;;;;;;5093600;28;20113;-83
2023/09/10 10:12:09;;;;;;;19.05;14.65;;;25.10;99.90;;;;;;5076299;28;20069;-83
2023/09/10 10:14:42;;;;;;;21.42;15.05;;;25.10;99.90;;;;;;5112642;28;20044;-83
2023/09/10 10:17:10;;;;;;;17.77;13.65;;;25.20;99.90;;;;;;5113078;28;20512;-83
2023/09/10 10:19:38;;;;;;;17.85;14.05;;;25.30;99.90;;;;;;5113584;28;20036;-83
2023/09/10 10:22:06;;;;;;;20.02;14.38;;;25.40;99.90;;;;;;5096574;28;20050;-83
2023/09/10 10:24:34;;;;;;;17.20;14.45;;;25.40;99.90;;;;;;5109662;28;20052;-82
2023/09/10 10:27:01;;;;;;;17.88;13.00;;;25.50;99.90;;;;;;5093036;28;20036;-82
2023/09/10 10:29:28;;;;;;;19.17;13.95;;;25.50;99.90;;;;;;5093099;28;20046;-83
2023/09/10 10:32:15;;;;;;;17.88;13.80;;;25.70;99.90;;;;;;5090523;28;20182;-83
2023/09/10 10:34:56;;;;;;;16.60;14.40;;;25.80;99.90;;;;;;5089593;28;20514;-83
2023/09/10 10:37:53;;;;;;;20.00;13.30;;;25.80;99.90;;;;;;5095107;28;20097;-83
2023/09/10 10:40:27;;;;;;;16.80;11.90;;;25.90;99.90;;;;;;5062837;28;20055;-82
2023/09/10 10:43:03;;;;;;;21.30;13.63;;;26.00;99.90;;;;;;5120654;28;20043;-83
2023/09/10 10:45:31;;;;;;;19.17;15.13;;;26.10;99.90;;;;;;5097113;28;20036;-82
2023/09/10 10:48:03;;;;;;;18.35;13.23;;;26.10;99.90;;;;;;5076064;28;20067;-82
2023/09/10 10:50:34;;;;;;;16.55;11.18;;;26.20;99.90;;;;;;5089511;28;20041;-82
2023/09/10 10:53:10;;;;;;;16.98;12.95;;;26.30;99.90;;;;;;5097249;28;20040;-82
2023/09/10 10:55:39;;;;;;;17.38;12.50;;;26.30;99.90;;;;;;5126443;28;20044;-82
2023/09/10 10:58:06;;;;;;;14.68;12.20;;;26.40;99.90;;;;;;5076435;28;20177;-83
2023/09/10 11:00:33;;;;;;;20.42;11.32;;;26.40;99.90;;;;;;5092920;28;20114;-83
2023/09/10 11:03:14;;;;;;;13.88;11.88;;;26.50;99.90;;;;;;5076139;28;20519;-83
2023/09/10 11:05:57;;;;;;;12.00;10.70;;;26.60;99.90;;;;;;5093181;28;20044;-83
2023/09/10 11:08:24;;;;;;;12.63;9.73;;;26.60;99.90;;;;;;5102882;28;20040;-83
2023/09/10 11:10:50;;;;;;;13.40;10.15;;;26.60;99.90;;;;;;5102513;28;20085;-83
2023/09/10 11:13:17;;;;;;;16.58;9.55;;;26.70;99.90;;;;;;5068475;28;20070;-83
2023/09/10 11:16:09;;;;;;;12.95;9.55;;;26.80;99.90;;;;;;5084647;28;20032;-83
2023/09/10 11:18:35;;;;;;;13.20;10.10;;;26.80;99.90;;;;;;5116604;28;20094;-83
2023/09/10 11:21:15;;;;;;;14.05;10.07;;;26.90;99.90;;;;;;5091590;28;20040;-87
2023/09/10 11:23:58;;;;;;;15.70;9.13;;;27.00;99.90;;;;;;5083343;28;20048;-87
2023/09/10 11:26:28;;;;;;;12.93;8.65;;;27.00;99.90;;;;;;5093058;28;20052;-88
2023/09/10 11:28:56;;;;;;;10.95;7.82;;;27.10;99.90;;;;;;5109501;28;20135;-87
2023/09/10 11:31:46;;;;;;;13.18;9.95;;;27.20;99.90;;;;;;5109497;28;20079;-88
2023/09/10 11:34:23;;;;;;;12.45;10.10;;;27.20;99.90;;;;;;5092354;28;20097;-87
2023/09/10 11:37:02;;;;;;;11.88;9.02;;;27.10;99.90;;;;;;5109427;28;20504;-87
2023/09/10 11:39:31;;;;;;;13.82;9.20;;;27.00;99.90;;;;;;5109744;28;20536;-87
2023/09/10 11:42:00;;;;;;;12.85;9.73;;;27.00;99.90;;;;;;5092854;28;20036;-87
2023/09/10 11:44:28;;;;;;;11.23;9.07;;;27.00;99.90;;;;;;5076412;28;20040;-88
2023/09/10 11:46:55;;;;;;;12.00;8.20;;;27.10;99.90;;;;;;5076247;28;20445;-87
2023/09/10 11:49:23;;;;;;;12.27;7.97;;;27.20;99.90;;;;;;5076012;28;20124;-87
2023/09/10 11:51:52;;;;;;;11.43;8.68;;;27.20;99.90;;;;;;5093136;28;20133;-87
2023/09/10 11:54:20;;;;;;;13.70;7.97;;;27.30;99.90;;;;;;5109312;28;20040;-88
2023/09/10 11:56:51;;;;;;;15.40;9.05;;;27.30;99.90;;;;;;5076296;28;20036;-87
2023/09/10 11:59:23;;;;;;;11.02;7.72;;;27.40;99.90;;;;;;5047967;28;20078;-87
2023/09/10 12:01:53;;;;;;;14.50;7.88;;;27.50;99.90;;;;;;5075861;28;20040;-87
2023/09/10 12:04:20;;;;;;;11.73;8.13;;;27.50;99.90;;;;;;5091908;28;20044;-87
2023/09/10 12:06:47;;;;;;;10.85;6.88;;;27.50;99.90;;;;;;5092681;28;20500;-87
2023/09/10 12:09:16;;;;;;;11.30;6.97;;;27.60;99.90;;;;;;5059162;28;20040;-87
2023/09/10 12:11:43;;;;;;;10.43;7.75;;;27.70;99.90;;;;;;5072502;28;20098;-88
2023/09/10 12:14:11;;;;;;;13.65;7.15;;;27.70;99.90;;;;;;5072485;28;20044;-86
2023/09/10 12:16:38;;;;;;;10.50;7.55;;;27.80;99.90;;;;;;5058777;28;20101;-88
2023/09/10 12:19:05;;;;;;;13.13;7.68;;;27.80;99.90;;;;;;5059584;28;20044;-86
2023/09/10 12:21:32;;;;;;;11.93;7.25;;;27.80;99.90;;;;;;5062904;28;20109;-88
2023/09/10 12:23:59;;;;;;;14.68;7.80;;;27.70;99.90;;;;;;5063038;28;20064;-88
2023/09/10 12:26:26;;;;;;;10.02;8.07;;;27.70;99.90;;;;;;5079414;28;20183;-88
2023/09/10 12:28:53;;;;;;;13.07;7.47;;;27.70;99.90;;;;;;5063102;28;20115;-88
2023/09/10 12:31:20;;;;;;;12.80;8.63;;;27.70;99.90;;;;;;5078719;28;20050;-87
2023/09/10 12:33:47;;;;;;;17.50;8.02;;;27.70;99.90;;;;;;5079507;28;20032;-89
2023/09/10 12:36:14;;;;;;;14.60;7.80;;;27.70;99.90;;;;;;5078922;28;20860;-87